createdAt,value
2023-01-08T00:01:06.179Z,42.27
2023-01-08T00:03:33.137Z,43.50
2023-01-08T00:06:03.951Z,42.97
2023-01-08T00:08:31.833Z,42.33
2023-01-08T00:10:59.219Z,43.10
2023-01-08T00:13:26.378Z,44.63
2023-01-08T00:15:53.798Z,46.77
2023-01-08T00:18:20.776Z,41.90
2023-01-08T00:20:48.579Z,44.10
2023-01-08T00:23:16.723Z,41.80
2023-01-08T00:25:43.557Z,41.53
2023-01-08T00:28:10.363Z,42.47
2023-01-08T00:30:37.975Z,44.23
2023-01-08T00:33:04.884Z,44.97
2023-01-08T00:35:31.794Z,43.67
2023-01-08T00:37:58.712Z,40.33
2023-01-08T00:40:25.587Z,44.17
2023-01-08T00:42:52.600Z,42.87
2023-01-08T00:45:19.565Z,39.73
2023-01-08T00:47:46.572Z,38.73
2023-01-08T00:50:13.851Z,39.10
2023-01-08T00:52:40.860Z,37.43
2023-01-08T00:55:07.999Z,40.43
2023-01-08T00:57:35.896Z,38.43
2023-01-08T01:00:03.986Z,38.47
2023-01-08T01:02:30.845Z,38.73
2023-01-08T01:04:57.824Z,39.33
2023-01-08T01:07:24.672Z,37.60
2023-01-08T01:09:51.659Z,37.10
2023-01-08T01:12:18.465Z,37.17
2023-01-08T01:14:45.566Z,39.03
2023-01-08T01:17:13.009Z,34.70
2023-01-08T01:19:40.038Z,36.90
2023-01-08T01:22:07.537Z,36.03
2023-01-08T01:24:34.686Z,36.50
2023-01-08T01:27:01.698Z,35.27
2023-01-08T01:29:28.943Z,34.37
2023-01-08T01:31:57.842Z,33.97
2023-01-08T01:34:25.381Z,33.30
2023-01-08T01:36:52.185Z,33.23
2023-01-08T01:39:20.227Z,32.27
2023-01-08T01:41:47.711Z,32.07
2023-01-08T01:44:33.114Z,32.63
2023-01-08T01:47:01.120Z,30.13
2023-01-08T01:49:27.966Z,28.87
2023-01-08T01:51:56.076Z,29.80
2023-01-08T01:54:23.110Z,30.70
2023-01-08T01:56:49.996Z,28.30
2023-01-08T01:59:17.030Z,28.33
2023-01-08T02:01:44.363Z,27.67
2023-01-08T02:04:12.552Z,27.83
2023-01-08T02:06:48.369Z,28.80
2023-01-08T02:09:22.814Z,28.80
2023-01-08T02:12:14.908Z,28.70
2023-01-08T02:15:01.477Z,26.37
2023-01-08T02:18:01.420Z,27.67
2023-01-08T02:20:31.525Z,28.43
2023-01-08T02:23:07.238Z,27.37
2023-01-08T02:25:34.106Z,28.37
2023-01-08T02:28:02.642Z,27.97
2023-01-08T02:30:30.213Z,28.77
2023-01-08T02:32:57.337Z,27.63
2023-01-08T02:35:24.287Z,28.00
2023-01-08T02:37:51.138Z,28.20
2023-01-08T02:40:17.988Z,29.93
2023-01-08T02:42:54.013Z,29.73
2023-01-08T02:45:33.010Z,29.23
2023-01-08T02:47:59.816Z,27.53
2023-01-08T02:50:30.838Z,30.20
2023-01-08T02:53:16.071Z,28.30
2023-01-08T02:55:45.624Z,28.37
2023-01-08T02:58:13.082Z,28.03
2023-01-08T03:00:41.297Z,27.97
2023-01-08T03:03:23.284Z,27.13
2023-01-08T03:05:51.825Z,26.97
2023-01-08T03:08:19.275Z,27.07
2023-01-08T03:10:48.203Z,27.90
2023-01-08T03:13:16.806Z,26.47
2023-01-08T03:15:47.701Z,28.10
2023-01-08T03:18:18.813Z,28.40
2023-01-08T03:20:46.772Z,26.80
2023-01-08T03:23:15.422Z,29.97
2023-01-08T03:25:43.933Z,27.83
2023-01-08T03:28:17.762Z,27.50
2023-01-08T03:30:45.750Z,27.23
2023-01-08T03:33:13.625Z,27.90
2023-01-08T03:35:41.809Z,28.90
2023-01-08T03:38:11.409Z,28.10
2023-01-08T03:40:40.572Z,27.63
2023-01-08T03:43:07.501Z,29.03
2023-01-08T03:45:35.197Z,28.00
2023-01-08T03:48:03.114Z,28.00
2023-01-08T03:50:31.729Z,29.70
2023-01-08T03:53:00.722Z,27.53
2023-01-08T03:55:28.074Z,27.23
2023-01-08T03:57:55.009Z,28.63
2023-01-08T04:00:21.866Z,27.20
2023-01-08T04:02:48.781Z,27.97
2023-01-08T04:05:15.601Z,27.60
2023-01-08T04:07:42.619Z,25.77
2023-01-08T04:10:09.475Z,26.93
2023-01-08T04:12:36.374Z,28.00
2023-01-08T04:15:03.439Z,25.77
2023-01-08T04:17:30.226Z,26.37
2023-01-08T04:19:57.086Z,25.70
2023-01-08T04:22:23.854Z,25.37
2023-01-08T04:24:50.809Z,26.20
2023-01-08T04:27:18.029Z,26.80
2023-01-08T04:29:45.025Z,25.90
2023-01-08T04:32:11.933Z,24.97
2023-01-08T04:34:38.754Z,24.70
2023-01-08T04:37:05.562Z,24.27
2023-01-08T04:39:32.468Z,23.70
2023-01-08T04:41:59.285Z,25.47
2023-01-08T04:44:26.410Z,24.20
2023-01-08T04:46:53.629Z,25.17
2023-01-08T04:49:20.706Z,23.40
2023-01-08T04:51:47.463Z,24.20
2023-01-08T04:54:14.423Z,23.97
2023-01-08T04:56:41.478Z,24.13
2023-01-08T04:59:08.505Z,23.77
2023-01-08T05:01:35.422Z,22.83
2023-01-08T05:04:04.183Z,22.83
2023-01-08T05:06:31.799Z,25.23
2023-01-08T05:08:58.918Z,23.27
2023-01-08T05:11:26.222Z,23.10
2023-01-08T05:13:53.484Z,22.80
2023-01-08T05:16:20.469Z,23.80
2023-01-08T05:18:47.609Z,23.43
2023-01-08T05:21:14.759Z,23.83
2023-01-08T05:23:44.380Z,23.63
2023-01-08T05:26:11.216Z,23.27
2023-01-08T05:28:38.017Z,21.97
2023-01-08T05:31:05.084Z,23.40
2023-01-08T05:33:31.985Z,22.63
2023-01-08T05:35:59.048Z,23.77
2023-01-08T05:38:25.884Z,22.37
2023-01-08T05:40:53.210Z,25.17
2023-01-08T05:43:20.226Z,21.83
2023-01-08T05:45:47.175Z,22.37
2023-01-08T05:48:14.386Z,22.43
2023-01-08T05:50:41.348Z,22.43
2023-01-08T05:53:08.925Z,21.43
2023-01-08T05:55:35.725Z,21.50
2023-01-08T05:58:03.933Z,19.53
2023-01-08T06:00:31.317Z,20.63
2023-01-08T06:02:58.373Z,21.37
2023-01-08T06:05:25.197Z,21.00
2023-01-08T06:07:52.032Z,20.70
2023-01-08T06:10:19.044Z,21.17
2023-01-08T06:12:45.825Z,22.57
2023-01-08T06:15:13.305Z,20.87
2023-01-08T06:17:40.273Z,21.43
2023-01-08T06:20:07.561Z,18.80
2023-01-08T06:22:35.219Z,20.67
2023-01-08T06:25:02.182Z,19.30
2023-01-08T06:27:29.046Z,17.43
2023-01-08T06:29:56.653Z,20.10
2023-01-08T06:32:23.495Z,18.87
2023-01-08T06:34:50.463Z,19.53
2023-01-08T06:37:17.405Z,19.90
2023-01-08T06:39:44.441Z,19.17
2023-01-08T06:42:11.349Z,19.37
2023-01-08T06:44:38.257Z,20.60
2023-01-08T06:47:05.132Z,20.43
2023-01-08T06:49:32.163Z,20.33
2023-01-08T06:51:59.100Z,18.57
2023-01-08T06:54:26.089Z,20.30
2023-01-08T06:56:54.276Z,20.53
2023-01-08T06:59:21.975Z,20.23
2023-01-08T07:01:49.093Z,20.93
2023-01-08T07:04:16.387Z,21.10
2023-01-08T07:06:43.435Z,20.50
2023-01-08T07:09:13.963Z,22.13
2023-01-08T07:11:41.675Z,19.43
2023-01-08T07:14:08.624Z,20.30
2023-01-08T07:16:35.744Z,20.67
2023-01-08T07:19:02.691Z,20.50
2023-01-08T07:21:29.563Z,20.10
2023-01-08T07:23:56.403Z,20.43
2023-01-08T07:26:23.443Z,22.13
2023-01-08T07:28:50.220Z,21.40
2023-01-08T07:31:17.151Z,22.70
2023-01-08T07:33:44.142Z,21.40
2023-01-08T07:36:11.069Z,21.80
2023-01-08T07:38:38.091Z,22.07
2023-01-08T07:41:05.167Z,21.57
2023-01-08T07:43:32.079Z,21.53
2023-01-08T07:45:59.051Z,20.77
2023-01-08T07:48:25.981Z,21.83
2023-01-08T07:50:52.827Z,19.97
2023-01-08T07:53:19.951Z,22.17
2023-01-08T07:55:48.181Z,21.10
2023-01-08T07:58:15.365Z,21.27
2023-01-08T08:00:42.345Z,23.20
2023-01-08T08:03:11.839Z,20.33
2023-01-08T08:05:39.550Z,22.13
2023-01-08T08:08:10.775Z,21.93
2023-01-08T08:10:38.434Z,20.10
2023-01-08T08:13:05.823Z,20.73
2023-01-08T08:15:33.002Z,19.60
2023-01-08T08:18:00.207Z,20.90
2023-01-08T08:20:27.403Z,20.03
2023-01-08T08:23:03.322Z,20.77
2023-01-08T08:25:30.423Z,19.03
2023-01-08T08:27:58.751Z,18.97
2023-01-08T08:30:25.899Z,20.63
2023-01-08T08:32:53.187Z,18.67
2023-01-08T08:35:20.353Z,21.10
2023-01-08T08:37:47.297Z,20.63
2023-01-08T08:40:14.168Z,20.23
2023-01-08T08:42:41.002Z,18.40
2023-01-08T08:45:08.352Z,18.27
2023-01-08T08:47:35.365Z,18.20
2023-01-08T08:50:02.472Z,18.43
2023-01-08T08:52:30.103Z,18.73
2023-01-08T08:54:57.117Z,18.77
2023-01-08T08:57:24.607Z,17.30
2023-01-08T08:59:51.515Z,16.97
2023-01-08T09:02:19.425Z,18.13
2023-01-08T09:04:46.588Z,18.90
2023-01-08T09:07:13.567Z,19.07
2023-01-08T09:09:40.384Z,18.97
2023-01-08T09:12:07.965Z,17.60
2023-01-08T09:14:34.844Z,20.23
2023-01-08T09:17:01.772Z,19.37
2023-01-08T09:19:28.868Z,19.73
2023-01-08T09:21:55.732Z,19.10
2023-01-08T09:24:22.593Z,19.10
2023-01-08T09:26:49.492Z,19.47
2023-01-08T09:29:16.610Z,20.37
2023-01-08T09:31:43.601Z,18.77
2023-01-08T09:34:10.590Z,17.53
2023-01-08T09:36:37.695Z,19.83
2023-01-08T09:39:04.610Z,19.53
2023-01-08T09:41:33.153Z,19.37
2023-01-08T09:44:01.428Z,19.33
2023-01-08T09:46:29.025Z,17.70
2023-01-08T09:48:58.666Z,20.10
2023-01-08T09:51:31.274Z,19.17
2023-01-08T09:53:58.361Z,19.97
2023-01-08T09:56:25.780Z,19.30
2023-01-08T09:59:00.312Z,19.93
2023-01-08T10:01:28.592Z,19.03
2023-01-08T10:04:06.566Z,19.00
2023-01-08T10:06:33.763Z,20.10
2023-01-08T10:09:00.653Z,21.00
2023-01-08T10:11:30.903Z,19.03
2023-01-08T10:13:58.059Z,19.37
2023-01-08T10:16:36.846Z,18.07
2023-01-08T10:19:04.251Z,19.87
2023-01-08T10:21:33.204Z,20.80
2023-01-08T10:24:00.231Z,17.57
2023-01-08T10:26:28.365Z,17.97
2023-01-08T10:29:06.352Z,18.17
2023-01-08T10:31:33.571Z,19.27
2023-01-08T10:34:08.604Z,18.83
2023-01-08T10:36:39.470Z,19.23
2023-01-08T10:39:06.412Z,18.63
2023-01-08T10:41:37.868Z,19.17
2023-01-08T10:44:05.778Z,19.20
2023-01-08T10:46:36.757Z,22.03
2023-01-08T10:49:06.465Z,21.27
2023-01-08T10:51:33.876Z,18.97
2023-01-08T10:54:02.045Z,20.30
2023-01-08T10:56:30.262Z,18.57
2023-01-08T10:58:57.081Z,20.33
2023-01-08T11:01:29.019Z,19.87
2023-01-08T11:04:00.208Z,20.17
2023-01-08T11:06:29.597Z,20.43
2023-01-08T11:09:00.877Z,21.43
2023-01-08T11:11:34.863Z,21.43
2023-01-08T11:14:04.209Z,24.23
2023-01-08T11:16:32.350Z,22.10
2023-01-08T11:18:59.256Z,23.23
2023-01-08T11:21:27.732Z,20.73
2023-01-08T11:24:10.267Z,21.00
2023-01-08T11:26:37.640Z,21.07
2023-01-08T11:29:08.539Z,20.53
2023-01-08T11:31:39.937Z,21.77
2023-01-08T11:34:12.529Z,20.20
2023-01-08T11:36:43.382Z,20.47
2023-01-08T11:39:10.296Z,23.00
2023-01-08T11:41:49.192Z,21.23
2023-01-08T11:44:16.282Z,20.60
2023-01-08T11:46:58.360Z,20.93
2023-01-08T11:49:40.827Z,20.93
2023-01-08T11:52:23.131Z,21.07
2023-01-08T11:55:02.240Z,20.17
2023-01-08T11:57:42.726Z,22.07
2023-01-08T12:00:24.546Z,22.87
2023-01-08T12:02:56.103Z,18.90
2023-01-08T12:05:26.447Z,20.60
2023-01-08T12:08:13.122Z,21.83
2023-01-08T12:10:45.685Z,20.20
2023-01-08T12:13:31.054Z,21.57
2023-01-08T12:15:57.957Z,17.63
2023-01-08T12:18:51.651Z,18.23
2023-01-08T12:21:19.225Z,19.90
2023-01-08T12:24:02.044Z,18.20
2023-01-08T12:26:50.120Z,20.40
2023-01-08T12:29:25.283Z,18.70
2023-01-08T12:32:01.984Z,18.53
2023-01-08T12:34:43.694Z,16.37
2023-01-08T12:37:15.760Z,18.33
2023-01-08T12:39:47.607Z,17.97
2023-01-08T12:42:18.176Z,17.43
2023-01-08T12:44:45.927Z,19.77
2023-01-08T12:47:18.623Z,17.13
2023-01-08T12:49:49.725Z,17.60
2023-01-08T12:52:18.365Z,18.67
2023-01-08T12:54:54.356Z,17.17
2023-01-08T12:57:31.715Z,17.43
2023-01-08T13:00:08.111Z,17.17
2023-01-08T13:02:50.548Z,16.37
2023-01-08T13:05:20.484Z,15.93
2023-01-08T13:08:07.614Z,16.77
2023-01-08T13:10:36.012Z,15.37
2023-01-08T13:13:03.576Z,15.77
2023-01-08T13:15:32.067Z,13.80
2023-01-08T13:18:04.415Z,15.27
2023-01-08T13:20:32.443Z,14.80
2023-01-08T13:23:05.762Z,14.50
2023-01-08T13:25:32.749Z,12.50
2023-01-08T13:27:59.934Z,13.10
2023-01-08T13:30:30.903Z,12.70
2023-01-08T13:32:57.931Z,13.07
2023-01-08T13:35:25.930Z,15.13
2023-01-08T13:38:05.838Z,15.00
2023-01-08T13:40:36.854Z,14.47
2023-01-08T13:43:06.229Z,15.00
2023-01-08T13:45:33.526Z,15.37
2023-01-08T13:48:00.558Z,13.97
2023-01-08T13:50:30.852Z,13.77
2023-01-08T13:52:59.353Z,14.63
2023-01-08T13:55:31.158Z,15.40
2023-01-08T13:57:59.218Z,14.87
2023-01-08T14:00:50.591Z,14.40
2023-01-08T14:03:24.726Z,14.13
2023-01-08T14:05:51.586Z,13.70
2023-01-08T14:08:23.140Z,14.97
2023-01-08T14:10:50.110Z,14.40
2023-01-08T14:13:17.930Z,14.60
2023-01-08T14:15:45.093Z,16.63
2023-01-08T14:18:13.279Z,16.23
2023-01-08T14:20:41.964Z,13.57
2023-01-08T14:23:11.270Z,17.00
2023-01-08T14:25:38.316Z,14.90
2023-01-08T14:28:06.182Z,14.20
2023-01-08T14:30:33.187Z,17.63
2023-01-08T14:33:00.689Z,14.87
2023-01-08T14:35:32.817Z,14.77
2023-01-08T14:38:00.388Z,14.80
2023-01-08T14:40:31.904Z,16.40
2023-01-08T14:43:02.155Z,14.77
2023-01-08T14:45:31.906Z,14.30
2023-01-08T14:48:09.689Z,15.03
2023-01-08T14:50:38.960Z,13.43
2023-01-08T14:53:07.235Z,13.20
2023-01-08T14:55:35.828Z,14.17
2023-01-08T14:58:03.098Z,14.13
2023-01-08T15:00:31.425Z,12.93
2023-01-08T15:02:58.318Z,13.23
2023-01-08T15:05:32.735Z,12.03
2023-01-08T15:07:59.607Z,13.90
2023-01-08T15:10:32.704Z,12.93
2023-01-08T15:13:01.207Z,14.17
2023-01-08T15:15:28.144Z,13.83
2023-01-08T15:17:55.158Z,14.80
2023-01-08T15:20:25.466Z,14.70
2023-01-08T15:22:52.353Z,13.37
2023-01-08T15:25:23.127Z,14.37
2023-01-08T15:27:55.287Z,14.23
2023-01-08T15:30:25.508Z,14.63
2023-01-08T15:32:52.406Z,15.47
2023-01-08T15:35:19.321Z,15.90
2023-01-08T15:37:46.453Z,15.73
2023-01-08T15:40:13.393Z,14.57
2023-01-08T15:42:58.836Z,16.57
2023-01-08T15:45:32.688Z,15.97
2023-01-08T15:47:59.991Z,13.87
2023-01-08T15:50:27.595Z,14.20
2023-01-08T15:52:54.618Z,14.40
2023-01-08T15:55:22.655Z,13.87
2023-01-08T15:57:49.900Z,13.47
2023-01-08T16:00:17.927Z,13.50
2023-01-08T16:02:46.948Z,14.23
2023-01-08T16:05:14.545Z,13.23
2023-01-08T16:07:41.517Z,14.07
2023-01-08T16:10:09.434Z,14.47
2023-01-08T16:12:36.403Z,13.87
2023-01-08T16:15:03.287Z,14.50
2023-01-08T16:17:30.406Z,14.53
2023-01-08T16:19:57.443Z,14.17
2023-01-08T16:22:24.238Z,15.13
2023-01-08T16:24:51.180Z,13.73
2023-01-08T16:27:17.955Z,14.17
2023-01-08T16:29:44.809Z,14.50
2023-01-08T16:32:11.665Z,14.43
2023-01-08T16:34:38.487Z,14.07
2023-01-08T16:37:05.574Z,15.20
2023-01-08T16:39:35.058Z,13.43
2023-01-08T16:42:02.147Z,14.23
2023-01-08T16:44:29.145Z,15.47
2023-01-08T16:46:56.072Z,13.50
2023-01-08T16:49:22.882Z,14.00
2023-01-08T16:51:49.778Z,13.97
2023-01-08T16:54:16.869Z,13.47
2023-01-08T16:56:43.908Z,13.70
2023-01-08T16:59:22.328Z,13.33
2023-01-08T17:01:50.058Z,13.23
2023-01-08T17:04:17.017Z,14.87
2023-01-08T17:06:43.788Z,16.50
2023-01-08T17:09:11.786Z,15.80
2023-01-08T17:11:38.967Z,16.17
2023-01-08T17:14:06.345Z,16.77
2023-01-08T17:16:33.327Z,14.33
2023-01-08T17:19:00.156Z,15.50
2023-01-08T17:21:27.113Z,14.53
2023-01-08T17:23:53.945Z,16.00
2023-01-08T17:26:20.844Z,15.83
2023-01-08T17:28:47.591Z,16.70
2023-01-08T17:31:16.269Z,16.93
2023-01-08T17:33:44.438Z,16.37
2023-01-08T17:36:12.084Z,17.30
2023-01-08T17:38:39.253Z,16.60
2023-01-08T17:41:06.430Z,16.60
2023-01-08T17:43:36.729Z,18.73
2023-01-08T17:46:07.448Z,16.90
2023-01-08T17:48:34.613Z,17.23
2023-01-08T17:51:05.777Z,17.47
2023-01-08T17:53:34.145Z,16.30
2023-01-08T17:56:05.260Z,16.17
2023-01-08T17:58:32.112Z,16.50
2023-01-08T18:00:58.969Z,17.03
2023-01-08T18:03:25.774Z,17.50
2023-01-08T18:05:52.654Z,16.90
2023-01-08T18:08:19.465Z,16.73
2023-01-08T18:10:46.323Z,15.70
2023-01-08T18:13:13.075Z,16.27
2023-01-08T18:15:39.951Z,16.77
2023-01-08T18:18:06.806Z,16.27
2023-01-08T18:20:33.709Z,16.37
2023-01-08T18:23:00.482Z,18.47
2023-01-08T18:25:27.366Z,18.00
2023-01-08T18:27:54.392Z,16.90
2023-01-08T18:30:21.400Z,17.27
2023-01-08T18:32:48.189Z,17.47
2023-01-08T18:35:15.414Z,18.13
2023-01-08T18:37:42.251Z,18.30
2023-01-08T18:40:09.438Z,18.93
2023-01-08T18:42:36.266Z,18.47
2023-01-08T18:45:03.792Z,18.63
2023-01-08T18:47:30.582Z,19.50
2023-01-08T18:50:00.073Z,19.83
2023-01-08T18:52:26.948Z,20.20
2023-01-08T18:54:53.872Z,21.03
2023-01-08T18:57:21.297Z,20.10
2023-01-08T18:59:49.147Z,19.67
2023-01-08T19:02:23.916Z,20.67
2023-01-08T19:04:51.233Z,20.47
2023-01-08T19:07:18.215Z,20.83
2023-01-08T19:09:45.081Z,21.33
2023-01-08T19:12:11.908Z,19.80
2023-01-08T19:14:38.868Z,22.73
2023-01-08T19:17:06.068Z,21.53
2023-01-08T19:19:33.017Z,22.17
2023-01-08T19:21:59.854Z,21.50
2023-01-08T19:24:26.689Z,21.80
2023-01-08T19:26:53.595Z,22.10
2023-01-08T19:29:20.707Z,24.17
2023-01-08T19:31:47.871Z,23.47
2023-01-08T19:34:14.819Z,22.70
2023-01-08T19:36:43.768Z,23.27
2023-01-08T19:39:11.469Z,23.03
2023-01-08T19:41:57.909Z,24.27
2023-01-08T19:44:24.838Z,24.13
2023-01-08T19:46:51.699Z,24.07
2023-01-08T19:49:18.522Z,24.77
2023-01-08T19:51:45.987Z,25.83
2023-01-08T19:54:13.123Z,26.13
2023-01-08T19:56:40.233Z,26.47
2023-01-08T19:59:07.140Z,27.07
2023-01-08T20:01:34.389Z,26.30
2023-01-08T20:04:01.370Z,28.20
2023-01-08T20:06:28.422Z,27.73
2023-01-08T20:08:57.414Z,27.63
2023-01-08T20:11:24.566Z,26.83
2023-01-08T20:13:51.849Z,27.23
2023-01-08T20:16:19.773Z,28.67
2023-01-08T20:18:46.623Z,27.93
2023-01-08T20:21:17.547Z,27.77
2023-01-08T20:23:45.032Z,30.37
2023-01-08T20:26:14.654Z,30.00
2023-01-08T20:28:42.667Z,30.90
2023-01-08T20:31:11.287Z,30.83
2023-01-08T20:33:38.711Z,30.70
2023-01-08T20:36:13.002Z,29.90
2023-01-08T20:38:39.996Z,31.27
2023-01-08T20:41:07.244Z,30.23
2023-01-08T20:43:35.062Z,30.97
2023-01-08T20:46:02.431Z,31.03
2023-01-08T20:48:32.036Z,31.30
2023-01-08T20:51:02.765Z,31.90
2023-01-08T20:53:30.584Z,32.37
2023-01-08T20:55:58.100Z,32.03
2023-01-08T20:58:24.885Z,32.00
2023-01-08T21:00:51.901Z,31.90
2023-01-08T21:03:18.724Z,32.80
2023-01-08T21:05:46.375Z,30.23
2023-01-08T21:08:13.261Z,31.93
2023-01-08T21:10:40.016Z,31.17
2023-01-08T21:13:06.897Z,31.37
2023-01-08T21:15:35.841Z,30.17
2023-01-08T21:18:02.745Z,30.20
2023-01-08T21:20:29.689Z,30.90
2023-01-08T21:22:56.530Z,31.20
2023-01-08T21:25:23.380Z,32.87
2023-01-08T21:27:50.198Z,30.73
2023-01-08T21:30:17.242Z,32.10
2023-01-08T21:32:44.090Z,30.67
2023-01-08T21:35:10.867Z,30.87
2023-01-08T21:37:37.757Z,29.70
2023-01-08T21:40:05.115Z,31.57
2023-01-08T21:42:50.322Z,31.77
2023-01-08T21:45:26.313Z,32.77
2023-01-08T21:47:54.274Z,32.60
2023-01-08T21:50:21.400Z,32.17
2023-01-08T21:53:07.212Z,31.47
2023-01-08T21:55:35.169Z,30.67
2023-01-08T21:58:02.289Z,29.97
2023-01-08T22:00:29.193Z,32.20
2023-01-08T22:02:56.216Z,30.63
2023-01-08T22:05:22.970Z,30.17
2023-01-08T22:07:49.779Z,31.63
2023-01-08T22:10:16.687Z,30.67
2023-01-08T22:12:44.811Z,30.87
2023-01-08T22:15:11.698Z,29.87
2023-01-08T22:17:38.572Z,31.17
2023-01-08T22:20:08.192Z,29.80
2023-01-08T22:22:35.050Z,32.00
2023-01-08T22:25:02.392Z,30.10
2023-01-08T22:27:29.271Z,30.63
2023-01-08T22:29:56.216Z,27.80
2023-01-08T22:32:23.835Z,28.50
2023-01-08T22:34:50.718Z,27.17
2023-01-08T22:37:21.687Z,25.43
2023-01-08T22:39:49.122Z,25.17
2023-01-08T22:42:16.598Z,25.50
2023-01-08T22:44:43.449Z,24.67
2023-01-08T22:47:10.338Z,25.17
2023-01-08T22:49:37.934Z,26.33
2023-01-08T22:52:05.282Z,26.03
2023-01-08T22:54:32.150Z,24.43
2023-01-08T22:56:58.959Z,26.83
2023-01-08T22:59:25.806Z,25.90
2023-01-08T23:01:52.668Z,25.70
2023-01-08T23:04:19.497Z,25.30
2023-01-08T23:06:46.392Z,26.13
2023-01-08T23:09:13.196Z,24.47
2023-01-08T23:11:40.218Z,24.50
2023-01-08T23:14:07.044Z,25.63
2023-01-08T23:16:33.920Z,25.60
2023-01-08T23:19:00.956Z,23.67
2023-01-08T23:21:28.739Z,25.10
2023-01-08T23:23:55.591Z,25.83
2023-01-08T23:26:27.022Z,23.23
2023-01-08T23:28:54.238Z,25.03
2023-01-08T23:31:23.140Z,24.37
2023-01-08T23:33:50.273Z,24.50
2023-01-08T23:36:21.378Z,25.70
2023-01-08T23:38:49.832Z,25.60
2023-01-08T23:41:16.754Z,24.00
2023-01-08T23:43:43.694Z,23.83
2023-01-08T23:46:10.782Z,25.50
2023-01-08T23:48:37.652Z,26.13
2023-01-08T23:51:04.700Z,23.37
2023-01-08T23:53:31.722Z,24.70
2023-01-08T23:55:58.593Z,24.40
2023-01-08T23:58:25.741Z,25.73
